Time,TemperatureF,DewpointF,PressureIn,WindDirection,WindDirectionDegrees,WindSpeedMPH,WindSpeedGustMPH,Humidity,HourlyPrecipIn,Conditions,Clouds,dailyrainin,SoftwareType,DateUTC
2017-03-26 00:04:00,63.1,51.6,-100.00,ENE,73,3.5,3.5,66,0.00,CLR,,0.00,WeatherDisplay:10.37,2017-03-26 04:04:00,
2017-03-26 00:09:00,62.7,51.6,-100.00,East,89,3.5,3.5,67,0.00,CLR,,0.00,WeatherDisplay:10.37,2017-03-26 04:09:00,
2017-03-26 00:14:00,62.7,51.6,-100.00,East,80,3.5,3.5,67,0.00,CLR,,0.00,WeatherDisplay:10.37,2017-03-26 04:14:00,
2017-03-26 00:19:00,62.6,51.5,-100.00,ESE,106,3.5,3.5,67,0.00,CLR,,0.00,WeatherDisplay:10.37,2017-03-26 04:19:00,
2017-03-26 00:24:00,62.5,51.4,-100.00,East,92,2.3,2.3,67,0.00,CLR,,0.00,WeatherDisplay:10.37,2017-03-26 04:24:00,
2017-03-26 00:29:00,62.3,51.6,-100.00,ESE,106,3.5,3.5,68,0.00,CLR,,0.00,WeatherDisplay:10.37,2017-03-26 04:29:00,
2017-03-26 00:34:00,62.2,51.5,-100.00,ENE,66,4.6,4.6,68,0.00,CLR,,0.00,WeatherDisplay:10.37,2017-03-26 04:34:00,
2017-03-26 00:39:00,61.9,51.2,-100.00,ENE,65,4.0,4.0,68,0.00,CLR,,0.00,WeatherDisplay:10.37,2017-03-26 04:39:00,
2017-03-26 00:44:00,61.6,51.3,-100.00,ENE,65,4.6,4.6,69,0.00,CLR,,0.00,WeatherDisplay:10.37,2017-03-26 04:44:00,
2017-03-26 00:49:00,61.4,51.1,-100.00,ENE,76,2.3,2.3,69,0.00,CLR,,0.00,WeatherDisplay:10.37,2017-03-26 04:49:00,
2017-03-26 00:54:00,61.3,51.4,-100.00,ENE,69,4.0,4.0,70,0.00,CLR,,0.00,WeatherDisplay:10.37,2017-03-26 04:54:00,
2017-03-26 00:59:00,61.2,51.3,-100.00,East,86,2.5,2.5,70,0.00,CLR,,0.00,WeatherDisplay:10.37,2017-03-26 04:59:00,
2017-03-26 01:04:00,61.1,51.2,-100.00,NE,54,2.3,2.3,70,0.00,CLR,,0.00,WeatherDisplay:10.37,2017-03-26 05:04:00,
2017-03-26 01:09:00,61.2,51.3,-100.00,ESE,107,5.8,5.8,70,0.00,CLR,,0.00,WeatherDisplay:10.37,2017-03-26 05:09:00,
2017-03-26 01:14:00,61.2,51.3,-100.00,East,99,3.5,3.5,70,0.00,CLR,,0.00,WeatherDisplay:10.37,2017-03-26 05:14:00,
2017-03-26 01:19:00,61.1,51.2,-100.00,NE,49,1.2,0.0,70,0.00,CLR,,0.00,WeatherDisplay:10.37,2017-03-26 05:19:00,
2017-03-26 01:24:00,61.1,51.2,-100.00,NNE,30,4.6,4.6,70,0.00,CLR,,0.00,WeatherDisplay:10.37,2017-03-26 05:24:00,
2017-03-26 01:29:00,61.2,51.3,-100.00,NNE,30,0.0,0.0,70,0.00,CLR,,0.00,WeatherDisplay:10.37,2017-03-26 05:29:00,
2017-03-26 01:34:00,61.3,51.4,-100.00,ENE,62,10.4,10.4,70,0.00,CLR,,0.00,WeatherDisplay:10.37,2017-03-26 05:34:00,
2017-03-26 01:39:00,61.2,51.3,-100.00,ENE,68,6.3,6.3,70,0.00,CLR,,0.00,WeatherDisplay:10.37,2017-03-26 05:39:00,
2017-03-26 01:44:00,61.1,51.2,-100.00,ENE,73,8.1,8.1,70,0.00,CLR,,0.00,WeatherDisplay:10.37,2017-03-26 05:44:00,
2017-03-26 01:49:00,61.1,51.2,-100.00,ENE,65,6.2,6.2,70,0.00,CLR,,0.00,WeatherDisplay:10.37,2017-03-26 05:49:00,
2017-03-26 01:54:00,61.2,51.3,-100.00,NE,56,6.9,6.9,70,0.00,CLR,,0.00,WeatherDisplay:10.37,2017-03-26 05:54:00,
2017-03-26 01:59:00,60.9,51.0,-100.00,ENE,71,5.8,5.8,70,0.00,CLR,,0.00,WeatherDisplay:10.37,2017-03-26 05:59:00,
2017-03-26 02:04:00,60.9,51.0,-100.00,NE,48,4.5,4.5,70,0.00,CLR,,0.00,WeatherDisplay:10.37,2017-03-26 06:04:00,
2017-03-26 02:09:00,61.0,51.1,-100.00,East,95,5.5,5.5,70,0.00,CLR,,0.00,WeatherDisplay:10.37,2017-03-26 06:09:00,
2017-03-26 02:14:00,60.7,51.2,-100.00,ENE,61,6.3,6.3,71,0.00,CLR,,0.00,WeatherDisplay:10.37,2017-03-26 06:14:00,
2017-03-26 02:19:00,60.8,51.3,-100.00,ENE,65,5.8,5.8,71,0.00,CLR,,0.00,WeatherDisplay:10.37,2017-03-26 06:19:00,
2017-03-26 02:24:00,60.6,51.1,-100.00,North,7,6.9,6.9,71,0.00,CLR,,0.00,WeatherDisplay:10.37,2017-03-26 06:24:00,
2017-03-26 02:29:00,60.7,51.2,-100.00,NNE,16,4.6,4.6,71,0.00,CLR,,0.00,WeatherDisplay:10.37,2017-03-26 06:29:00,
2017-03-26 02:34:00,60.5,51.0,-100.00,NNE,24,4.6,4.6,71,0.00,CLR,,0.00,WeatherDisplay:10.37,2017-03-26 06:34:00,
2017-03-26 02:39:00,60.5,51.4,-100.00,ENE,68,4.6,4.6,72,0.00,CLR,,0.00,WeatherDisplay:10.37,2017-03-26 06:39:00,
2017-03-26 02:44:00,60.3,51.2,-100.00,East,85,3.5,3.5,72,0.00,CLR,,0.00,WeatherDisplay:10.37,2017-03-26 06:44:00,
2017-03-26 02:49:00,60.3,51.2,-100.00,ENE,64,0.0,0.0,72,0.00,CLR,,0.00,WeatherDisplay:10.37,2017-03-26 06:49:00,
2017-03-26 02:54:00,60.1,51.0,-100.00,East,99,4.6,4.6,72,0.00,CLR,,0.00,WeatherDisplay:10.37,2017-03-26 06:54:00,
2017-03-26 02:59:00,59.9,51.2,-100.00,East,96,5.8,5.8,73,0.00,CLR,,0.00,WeatherDisplay:10.37,2017-03-26 06:59:00,
2017-03-26 03:04:00,59.9,51.2,-100.00,North,356,9.2,9.2,73,0.00,CLR,,0.00,WeatherDisplay:10.37,2017-03-26 07:04:00,
2017-03-26 03:09:00,59.7,51.0,-100.00,NE,48,4.6,4.6,73,0.00,CLR,,0.00,WeatherDisplay:10.37,2017-03-26 07:09:00,
2017-03-26 03:14:00,59.6,50.9,-100.00,East,92,9.2,9.2,73,0.00,CLR,,0.00,WeatherDisplay:10.37,2017-03-26 07:14:00,
2017-03-26 03:19:00,59.8,51.1,-100.00,NE,41,5.8,5.8,73,0.00,CLR,,0.00,WeatherDisplay:10.37,2017-03-26 07:19:00,
2017-03-26 03:24:00,59.9,51.2,-100.00,NE,52,8.1,8.1,73,0.00,CLR,,0.00,WeatherDisplay:10.37,2017-03-26 07:24:00,
2017-03-26 03:29:00,59.6,50.9,-100.00,ENE,64,7.6,7.6,73,0.00,CLR,,0.00,WeatherDisplay:10.37,2017-03-26 07:29:00,
2017-03-26 03:34:00,59.7,51.4,-100.00,ENE,65,6.9,6.9,74,0.00,CLR,,0.00,WeatherDisplay:10.37,2017-03-26 07:34:00,
2017-03-26 03:39:00,59.3,51.0,-100.00,NE,55,6.2,6.2,74,0.00,CLR,,0.00,WeatherDisplay:10.37,2017-03-26 07:39:00,
2017-03-26 03:44:00,59.3,51.0,-100.00,ENE,61,5.8,5.8,74,0.00,CLR,,0.00,WeatherDisplay:10.37,2017-03-26 07:44:00,
2017-03-26 03:49:00,59.1,51.2,-100.00,ENE,76,5.8,5.8,75,0.00,CLR,,0.00,WeatherDisplay:10.37,2017-03-26 07:49:00,
2017-03-26 03:54:00,59.0,51.1,-100.00,ENE,71,9.2,9.2,75,0.00,CLR,,0.00,WeatherDisplay:10.37,2017-03-26 07:54:00,
2017-03-26 03:59:00,59.0,51.1,-100.00,ENE,59,5.8,5.8,75,0.00,CLR,,0.00,WeatherDisplay:10.37,2017-03-26 07:59:00,
2017-03-26 04:04:00,58.9,51.0,-100.00,ENE,65,6.5,6.5,75,0.00,CLR,,0.00,WeatherDisplay:10.37,2017-03-26 08:04:00,
2017-03-26 04:09:00,58.8,51.2,-100.00,ENE,72,6.9,6.9,76,0.00,CLR,,0.00,WeatherDisplay:10.37,2017-03-26 08:09:00,
2017-03-26 04:14:00,58.7,51.2,-100.00,East,88,5.8,5.8,76,0.00,CLR,,0.00,WeatherDisplay:10.37,2017-03-26 08:14:00,
2017-03-26 04:19:00,58.8,51.2,-100.00,East,93,5.2,5.2,76,0.00,CLR,,0.00,WeatherDisplay:10.37,2017-03-26 08:19:00,
2017-03-26 04:24:00,58.8,51.2,-100.00,East,92,5.8,5.8,76,0.00,CLR,,0.00,WeatherDisplay:10.37,2017-03-26 08:24:00,
2017-03-26 04:29:00,58.7,51.2,-100.00,East,89,4.6,4.6,76,0.00,CLR,,0.00,WeatherDisplay:10.37,2017-03-26 08:29:00,
2017-03-26 04:34:00,58.3,50.8,-100.00,East,89,7.8,7.8,76,0.00,CLR,,0.00,WeatherDisplay:10.37,2017-03-26 08:34:00,
2017-03-26 04:39:00,58.3,51.1,-100.00,ENE,62,4.6,4.6,77,0.00,CLR,,0.00,WeatherDisplay:10.37,2017-03-26 08:39:00,
2017-03-26 04:44:00,58.2,51.0,-100.00,ENE,72,5.8,5.8,77,0.00,CLR,,0.00,WeatherDisplay:10.37,2017-03-26 08:44:00,
2017-03-26 04:49:00,58.3,51.5,-100.00,ENE,64,5.8,5.8,78,0.00,CLR,,0.00,WeatherDisplay:10.37,2017-03-26 08:49:00,
2017-03-26 04:54:00,58.5,51.7,-100.00,ENE,59,4.6,4.6,78,0.00,CLR,,0.00,WeatherDisplay:10.37,2017-03-26 08:54:00,
2017-03-26 04:59:00,58.2,51.4,-100.00,ENE,66,4.6,4.8,78,0.00,CLR,,0.00,WeatherDisplay:10.37,2017-03-26 08:59:00,